Decoded Metar for LKPR (PRAGUE in CZECH REPUBLIC) (IATA:PRG) | Meteo·Mobile Aviation Weather
aviador You're here:

LKPR Decoded Metar

PRAGUE in CZECH REPUBLIC
Report Time2019-10-19 21:30:00
UTC Time2019-10-19 22:00:51
Flight Rules vfr VFR
Wind140° at 08 kt
W.Decomp.*RWY 12: 7.6 kt HW 2.5 kt RCW
RWY 06: 1.7 kt HW 7.8 kt RCW
RWY 22: 1.1 kt HW 7.9 kt LCW
Visibility9999 m
Phenomena:N/A
Clouds:N/A
Expected CloudBase > 400 ft AGL from Temp-Dew spread
CeilingNone
Temp10°C (ISA -3)
Dew Point09°C (94% RH)
AAT6.9°C
QNH1012 hPa
Density Alt1,079 ft
Elevation1,198 ft
Report Wrong Elevation
Raw Report
LKPR 192130Z 14008KT CAVOK 10/09 Q1012 NOSIG=

Extra information for LKPR:More info

Metar Taf Metar & Taf Last 4 Metars F.Rules Stats Wind Profile Meteogram Temp Stats Airport Information Weather charts Add Link Nearby VenuesMetar ALERT Operation Metar Decoded Social comments